Terminal Aerodrome Forecast
Issued by NWS Missoula, MT

Home | Current Version | Previous Version | Text Only | Print | Product List | Glossary On
Versions: 1 2 3 4 5 6 7 8 9 10 11 12 13
000
FTUS45 KMSO 301125
TAFBTM
TAF
KBTM 301125Z 3012/3112 35006KT P6SM -SHRA BKN060 OVC090
     FM301400 30010KT P6SM VCSH BKN080
     FM302100 30010G20KT P6SM VCTS BKN070CB
     FM310100 31008KT P6SM -SHRA BKN050=

USA.gov is the U.S. government's official web portal to all federal, state and local government web resources and services.